TJBQ/BQN METAR and TAF weather

Enter ICAO airport designator
Station Type Date Time Source
TJBQ METAR 2021/07/30 00:50 UTC NOAA

TJBQ 300050Z 00000KT 10SM SCT039 26/24 A3006


Station Type Date Time Source
TJBQ Decoded METAR 2021/07/30 00:50 UTC NOAA

Aquadilla, Rafael Hernandez Airport, PR, United States (TJBQ) 18-30N 067-08W 69M
Jul 29, 2021 - 08:50 PM EDT / 2021.07.30 0050 UTC
Wind: Calm:0
Visibility: 10 mile(s):0
Sky conditions: partly cloudy
Temperature: 78 F (26 C)
Dew Point: 75 F (24 C)
Relative Humidity: 88%
Pressure (altimeter): 30.06 in. Hg (1017 hPa)
ob: TJBQ 300050Z 00000KT 10SM SCT039 26/24 A3006
cycle: 1

Station Type Date Time Source
TJBQ TAF 2021/07/30 06:48 UTC NOAA

TAF TJBQ 300540Z 3006/3106 12005KT P6SM FEW030
FM301400 08015G25KT P6SM VCSH FEW030
FM302300 10013KT P6SM FEW025
AMD NOT SKED TIL 301100

Example: see airport list